sensor_id;sensor_type;location;lat;lon;timestamp;P1;durP1;ratioP1;P2;durP2;ratioP2
68050;SDS011;54839;51.364;7.246;2023-11-18T00:02:16;47.60;;;23.73;;
68050;SDS011;54839;51.364;7.246;2023-11-18T00:04:42;38.93;;;22.83;;
68050;SDS011;54839;51.364;7.246;2023-11-18T00:07:08;37.97;;;21.17;;
68050;SDS011;54839;51.364;7.246;2023-11-18T00:09:34;36.60;;;19.97;;
68050;SDS011;54839;51.364;7.246;2023-11-18T00:12:00;43.33;;;22.07;;
68050;SDS011;54839;51.364;7.246;2023-11-18T00:14:26;47.17;;;20.20;;
68050;SDS011;54839;51.364;7.246;2023-11-18T00:16:51;37.63;;;20.37;;
68050;SDS011;54839;51.364;7.246;2023-11-18T00:19:17;37.60;;;19.27;;
68050;SDS011;54839;51.364;7.246;2023-11-18T00:21:42;36.23;;;21.73;;
68050;SDS011;54839;51.364;7.246;2023-11-18T00:24:09;43.63;;;22.37;;
68050;SDS011;54839;51.364;7.246;2023-11-18T00:26:34;36.07;;;21.00;;
68050;SDS011;54839;51.364;7.246;2023-11-18T00:29:00;38.73;;;20.87;;
68050;SDS011;54839;51.364;7.246;2023-11-18T00:31:25;39.47;;;22.27;;
68050;SDS011;54839;51.364;7.246;2023-11-18T00:33:52;36.40;;;21.70;;
68050;SDS011;54839;51.364;7.246;2023-11-18T00:36:17;34.53;;;21.70;;
68050;SDS011;54839;51.364;7.246;2023-11-18T00:38:43;35.30;;;20.80;;
68050;SDS011;54839;51.364;7.246;2023-11-18T00:41:09;32.17;;;20.47;;
68050;SDS011;54839;51.364;7.246;2023-11-18T00:43:34;31.60;;;19.67;;
68050;SDS011;54839;51.364;7.246;2023-11-18T00:46:00;33.97;;;21.57;;
68050;SDS011;54839;51.364;7.246;2023-11-18T00:48:28;31.13;;;19.77;;
68050;SDS011;54839;51.364;7.246;2023-11-18T00:50:53;34.90;;;19.60;;
68050;SDS011;54839;51.364;7.246;2023-11-18T00:53:19;28.83;;;18.20;;
68050;SDS011;54839;51.364;7.246;2023-11-18T00:55:44;35.67;;;19.80;;
68050;SDS011;54839;51.364;7.246;2023-11-18T00:58:10;30.40;;;19.33;;
68050;SDS011;54839;51.364;7.246;2023-11-18T01:00:36;33.67;;;20.67;;
68050;SDS011;54839;51.364;7.246;2023-11-18T01:03:01;28.07;;;17.70;;
68050;SDS011;54839;51.364;7.246;2023-11-18T01:05:28;34.40;;;18.20;;
68050;SDS011;54839;51.364;7.246;2023-11-18T01:07:56;26.20;;;16.70;;
68050;SDS011;54839;51.364;7.246;2023-11-18T01:10:22;29.90;;;16.87;;
68050;SDS011;54839;51.364;7.246;2023-11-18T01:12:48;27.27;;;17.87;;
68050;SDS011;54839;51.364;7.246;2023-11-18T01:15:13;26.57;;;17.50;;
68050;SDS011;54839;51.364;7.246;2023-11-18T01:17:39;29.17;;;18.17;;
68050;SDS011;54839;51.364;7.246;2023-11-18T01:20:05;26.20;;;17.47;;
68050;SDS011;54839;51.364;7.246;2023-11-18T01:22:34;24.47;;;15.53;;
68050;SDS011;54839;51.364;7.246;2023-11-18T01:25:00;27.27;;;17.07;;
68050;SDS011;54839;51.364;7.246;2023-11-18T01:27:26;26.43;;;16.87;;
68050;SDS011;54839;51.364;7.246;2023-11-18T01:29:52;28.70;;;16.57;;
68050;SDS011;54839;51.364;7.246;2023-11-18T01:32:17;22.30;;;13.90;;
68050;SDS011;54839;51.364;7.246;2023-11-18T01:34:44;21.70;;;15.63;;
68050;SDS011;54839;51.364;7.246;2023-11-18T01:37:15;27.30;;;17.67;;
68050;SDS011;54839;51.364;7.246;2023-11-18T01:39:41;25.80;;;17.37;;
68050;SDS011;54839;51.364;7.246;2023-11-18T01:42:06;31.00;;;17.47;;
68050;SDS011;54839;51.364;7.246;2023-11-18T01:44:32;21.33;;;15.20;;
68050;SDS011;54839;51.364;7.246;2023-11-18T01:47:00;24.23;;;16.60;;
68050;SDS011;54839;51.364;7.246;2023-11-18T01:49:28;25.50;;;16.00;;
68050;SDS011;54839;51.364;7.246;2023-11-18T01:51:53;21.70;;;15.33;;
68050;SDS011;54839;51.364;7.246;2023-11-18T01:54:19;25.90;;;17.20;;
68050;SDS011;54839;51.364;7.246;2023-11-18T01:56:47;26.37;;;17.23;;
68050;SDS011;54839;51.364;7.246;2023-11-18T01:59:16;27.77;;;17.07;;
68050;SDS011;54839;51.364;7.246;2023-11-18T02:01:49;23.20;;;16.10;;
68050;SDS011;54839;51.364;7.246;2023-11-18T02:04:19;24.60;;;15.87;;
68050;SDS011;54839;51.364;7.246;2023-11-18T02:06:46;24.87;;;16.87;;
68050;SDS011;54839;51.364;7.246;2023-11-18T02:09:17;27.17;;;17.43;;
68050;SDS011;54839;51.364;7.246;2023-11-18T02:11:58;21.07;;;14.83;;
68050;SDS011;54839;51.364;7.246;2023-11-18T02:14:34;21.60;;;15.13;;
68050;SDS011;54839;51.364;7.246;2023-11-18T02:17:04;21.23;;;14.13;;
68050;SDS011;54839;51.364;7.246;2023-11-18T02:19:31;20.40;;;14.27;;
68050;SDS011;54839;51.364;7.246;2023-11-18T02:21:59;21.07;;;14.30;;
68050;SDS011;54839;51.364;7.246;2023-11-18T02:24:29;21.70;;;14.83;;
68050;SDS011;54839;51.364;7.246;2023-11-18T02:26:58;21.40;;;15.47;;
68050;SDS011;54839;51.364;7.246;2023-11-18T02:29:25;21.07;;;14.60;;
68050;SDS011;54839;51.364;7.246;2023-11-18T02:31:56;21.03;;;15.30;;
68050;SDS011;54839;51.364;7.246;2023-11-18T02:34:27;27.57;;;14.63;;
68050;SDS011;54839;51.364;7.246;2023-11-18T02:36:57;26.50;;;14.20;;
68050;SDS011;54839;51.364;7.246;2023-11-18T02:39:36;22.97;;;15.90;;
68050;SDS011;54839;51.364;7.246;2023-11-18T02:42:06;21.57;;;16.40;;
68050;SDS011;54839;51.364;7.246;2023-11-18T02:44:37;25.70;;;15.47;;
68050;SDS011;54839;51.364;7.246;2023-11-18T02:47:03;23.30;;;16.10;;
68050;SDS011;54839;51.364;7.246;2023-11-18T02:49:34;20.13;;;13.83;;
68050;SDS011;54839;51.364;7.246;2023-11-18T02:52:00;24.57;;;15.33;;
68050;SDS011;54839;51.364;7.246;2023-11-18T02:54:26;23.10;;;15.00;;
68050;SDS011;54839;51.364;7.246;2023-11-18T02:56:51;26.63;;;15.50;;
68050;SDS011;54839;51.364;7.246;2023-11-18T02:59:17;22.30;;;15.50;;
68050;SDS011;54839;51.364;7.246;2023-11-18T03:01:43;21.83;;;14.70;;
68050;SDS011;54839;51.364;7.246;2023-11-18T03:04:09;24.10;;;14.40;;
68050;SDS011;54839;51.364;7.246;2023-11-18T03:06:35;18.80;;;13.77;;
68050;SDS011;54839;51.364;7.246;2023-11-18T03:09:02;21.50;;;13.57;;
68050;SDS011;54839;51.364;7.246;2023-11-18T03:11:32;18.30;;;13.53;;
68050;SDS011;54839;51.364;7.246;2023-11-18T03:13:58;18.63;;;14.87;;
68050;SDS011;54839;51.364;7.246;2023-11-18T03:16:23;23.83;;;15.27;;
68050;SDS011;54839;51.364;7.246;2023-11-18T03:18:50;25.50;;;16.87;;
68050;SDS011;54839;51.364;7.246;2023-11-18T03:21:16;22.20;;;15.00;;
68050;SDS011;54839;51.364;7.246;2023-11-18T03:23:42;20.87;;;14.13;;
68050;SDS011;54839;51.364;7.246;2023-11-18T03:26:08;22.73;;;14.97;;
68050;SDS011;54839;51.364;7.246;2023-11-18T03:28:35;21.40;;;15.50;;
68050;SDS011;54839;51.364;7.246;2023-11-18T03:31:01;21.57;;;14.30;;
68050;SDS011;54839;51.364;7.246;2023-11-18T03:33:30;21.63;;;14.00;;
68050;SDS011;54839;51.364;7.246;2023-11-18T03:35:56;21.87;;;15.70;;
68050;SDS011;54839;51.364;7.246;2023-11-18T03:38:22;23.73;;;16.63;;
68050;SDS011;54839;51.364;7.246;2023-11-18T03:40:48;19.80;;;14.60;;
68050;SDS011;54839;51.364;7.246;2023-11-18T03:43:14;19.37;;;13.90;;
68050;SDS011;54839;51.364;7.246;2023-11-18T03:45:39;20.60;;;15.40;;
68050;SDS011;54839;51.364;7.246;2023-11-18T03:48:06;19.67;;;14.20;;
68050;SDS011;54839;51.364;7.246;2023-11-18T03:50:32;23.10;;;15.30;;
68050;SDS011;54839;51.364;7.246;2023-11-18T03:53:00;19.90;;;14.73;;
68050;SDS011;54839;51.364;7.246;2023-11-18T03:55:28;23.27;;;15.13;;
68050;SDS011;54839;51.364;7.246;2023-11-18T03:57:54;26.13;;;15.23;;
68050;SDS011;54839;51.364;7.246;2023-11-18T04:00:22;24.17;;;15.70;;
68050;SDS011;54839;51.364;7.246;2023-11-18T04:02:47;22.00;;;13.17;;
68050;SDS011;54839;51.364;7.246;2023-11-18T04:05:13;21.53;;;14.17;;
68050;SDS011;54839;51.364;7.246;2023-11-18T04:07:39;19.67;;;14.00;;
68050;SDS011;54839;51.364;7.246;2023-11-18T04:10:06;16.87;;;12.60;;
68050;SDS011;54839;51.364;7.246;2023-11-18T04:12:35;20.20;;;13.50;;
68050;SDS011;54839;51.364;7.246;2023-11-18T04:15:01;21.37;;;13.50;;
68050;SDS011;54839;51.364;7.246;2023-11-18T04:17:29;16.97;;;12.30;;
68050;SDS011;54839;51.364;7.246;2023-11-18T04:19:55;23.97;;;14.20;;
68050;SDS011;54839;51.364;7.246;2023-11-18T04:22:21;18.50;;;13.23;;
68050;SDS011;54839;51.364;7.246;2023-11-18T04:24:47;19.53;;;13.57;;
68050;SDS011;54839;51.364;7.246;2023-11-18T04:27:12;21.30;;;13.93;;
68050;SDS011;54839;51.364;7.246;2023-11-18T04:29:38;19.40;;;13.90;;
68050;SDS011;54839;51.364;7.246;2023-11-18T04:32:05;21.80;;;13.50;;
68050;SDS011;54839;51.364;7.246;2023-11-18T04:34:35;19.23;;;14.67;;
68050;SDS011;54839;51.364;7.246;2023-11-18T04:37:01;18.40;;;13.10;;
68050;SDS011;54839;51.364;7.246;2023-11-18T04:39:27;22.40;;;14.03;;
68050;SDS011;54839;51.364;7.246;2023-11-18T04:41:53;26.23;;;14.60;;
68050;SDS011;54839;51.364;7.246;2023-11-18T04:44:18;23.03;;;14.33;;
68050;SDS011;54839;51.364;7.246;2023-11-18T04:46:44;22.07;;;15.17;;
68050;SDS011;54839;51.364;7.246;2023-11-18T04:49:10;25.53;;;16.63;;
68050;SDS011;54839;51.364;7.246;2023-11-18T04:51:35;25.10;;;15.63;;
68050;SDS011;54839;51.364;7.246;2023-11-18T04:54:01;22.23;;;14.27;;
68050;SDS011;54839;51.364;7.246;2023-11-18T04:56:28;21.40;;;14.23;;
68050;SDS011;54839;51.364;7.246;2023-11-18T04:58:54;21.60;;;13.97;;
68050;SDS011;54839;51.364;7.246;2023-11-18T05:01:19;20.30;;;14.60;;
68050;SDS011;54839;51.364;7.246;2023-11-18T05:03:45;23.20;;;15.50;;
68050;SDS011;54839;51.364;7.246;2023-11-18T05:06:10;22.47;;;15.50;;
68050;SDS011;54839;51.364;7.246;2023-11-18T05:08:36;21.50;;;14.60;;
68050;SDS011;54839;51.364;7.246;2023-11-18T05:11:01;24.70;;;18.23;;
68050;SDS011;54839;51.364;7.246;2023-11-18T05:13:29;21.70;;;14.23;;
68050;SDS011;54839;51.364;7.246;2023-11-18T05:15:55;24.00;;;15.70;;
68050;SDS011;54839;51.364;7.246;2023-11-18T05:18:20;25.43;;;15.80;;
68050;SDS011;54839;51.364;7.246;2023-11-18T05:20:46;21.47;;;13.97;;
68050;SDS011;54839;51.364;7.246;2023-11-18T05:23:12;19.30;;;14.43;;
68050;SDS011;54839;51.364;7.246;2023-11-18T05:25:44;25.67;;;15.73;;
68050;SDS011;54839;51.364;7.246;2023-11-18T05:28:09;23.63;;;14.93;;
68050;SDS011;54839;51.364;7.246;2023-11-18T05:30:36;28.00;;;17.63;;
68050;SDS011;54839;51.364;7.246;2023-11-18T05:33:03;21.37;;;15.80;;
68050;SDS011;54839;51.364;7.246;2023-11-18T05:35:30;21.60;;;15.00;;
68050;SDS011;54839;51.364;7.246;2023-11-18T05:37:56;24.10;;;16.17;;
68050;SDS011;54839;51.364;7.246;2023-11-18T05:40:22;22.00;;;15.90;;
68050;SDS011;54839;51.364;7.246;2023-11-18T05:42:48;23.47;;;17.03;;
68050;SDS011;54839;51.364;7.246;2023-11-18T05:45:16;24.27;;;15.57;;
68050;SDS011;54839;51.364;7.246;2023-11-18T05:47:53;26.57;;;16.90;;
68050;SDS011;54839;51.364;7.246;2023-11-18T05:50:22;19.17;;;14.97;;
68050;SDS011;54839;51.364;7.246;2023-11-18T05:52:49;25.40;;;16.13;;
68050;SDS011;54839;51.364;7.246;2023-11-18T05:55:15;25.17;;;16.00;;
68050;SDS011;54839;51.364;7.246;2023-11-18T05:57:41;25.07;;;16.37;;
68050;SDS011;54839;51.364;7.246;2023-11-18T06:00:13;24.63;;;15.43;;
68050;SDS011;54839;51.364;7.246;2023-11-18T06:02:41;26.53;;;17.00;;
68050;SDS011;54839;51.364;7.246;2023-11-18T06:05:07;19.17;;;15.20;;
68050;SDS011;54839;51.364;7.246;2023-11-18T06:07:33;21.10;;;15.80;;
68050;SDS011;54839;51.364;7.246;2023-11-18T06:10:00;22.87;;;17.10;;
68050;SDS011;54839;51.364;7.246;2023-11-18T06:12:26;22.23;;;16.67;;
68050;SDS011;54839;51.364;7.246;2023-11-18T06:14:52;22.30;;;16.67;;
68050;SDS011;54839;51.364;7.246;2023-11-18T06:17:18;20.70;;;16.20;;
68050;SDS011;54839;51.364;7.246;2023-11-18T06:19:44;22.33;;;14.50;;
68050;SDS011;54839;51.364;7.246;2023-11-18T06:22:09;21.80;;;15.80;;
68050;SDS011;54839;51.364;7.246;2023-11-18T06:24:35;20.50;;;14.93;;
68050;SDS011;54839;51.364;7.246;2023-11-18T06:27:04;22.93;;;16.17;;
68050;SDS011;54839;51.364;7.246;2023-11-18T06:29:32;25.37;;;15.63;;
68050;SDS011;54839;51.364;7.246;2023-11-18T06:31:58;21.87;;;16.63;;
68050;SDS011;54839;51.364;7.246;2023-11-18T06:34:23;26.97;;;17.77;;
68050;SDS011;54839;51.364;7.246;2023-11-18T06:36:49;25.87;;;17.60;;
68050;SDS011;54839;51.364;7.246;2023-11-18T06:39:14;23.73;;;15.80;;
68050;SDS011;54839;51.364;7.246;2023-11-18T06:41:41;24.73;;;17.10;;
68050;SDS011;54839;51.364;7.246;2023-11-18T06:44:13;27.03;;;16.40;;
68050;SDS011;54839;51.364;7.246;2023-11-18T06:46:43;20.87;;;15.80;;
68050;SDS011;54839;51.364;7.246;2023-11-18T06:49:09;22.10;;;16.13;;
68050;SDS011;54839;51.364;7.246;2023-11-18T06:51:41;21.60;;;15.80;;
68050;SDS011;54839;51.364;7.246;2023-11-18T06:54:07;30.13;;;16.90;;
68050;SDS011;54839;51.364;7.246;2023-11-18T06:56:34;21.60;;;14.93;;
68050;SDS011;54839;51.364;7.246;2023-11-18T06:59:06;19.00;;;14.90;;
68050;SDS011;54839;51.364;7.246;2023-11-18T07:01:32;25.87;;;16.57;;
68050;SDS011;54839;51.364;7.246;2023-11-18T07:03:59;24.07;;;17.10;;
68050;SDS011;54839;51.364;7.246;2023-11-18T07:06:24;24.33;;;15.50;;
68050;SDS011;54839;51.364;7.246;2023-11-18T07:08:51;21.47;;;16.43;;
68050;SDS011;54839;51.364;7.246;2023-11-18T07:11:18;26.53;;;17.60;;
68050;SDS011;54839;51.364;7.246;2023-11-18T07:13:46;25.20;;;16.30;;
68050;SDS011;54839;51.364;7.246;2023-11-18T07:16:12;25.07;;;17.63;;
68050;SDS011;54839;51.364;7.246;2023-11-18T07:18:39;22.87;;;15.53;;
68050;SDS011;54839;51.364;7.246;2023-11-18T07:21:07;22.07;;;15.67;;
68050;SDS011;54839;51.364;7.246;2023-11-18T07:23:33;27.03;;;17.00;;
68050;SDS011;54839;51.364;7.246;2023-11-18T07:25:59;22.63;;;16.27;;
68050;SDS011;54839;51.364;7.246;2023-11-18T07:28:26;22.00;;;14.17;;
68050;SDS011;54839;51.364;7.246;2023-11-18T07:30:52;23.60;;;16.87;;
68050;SDS011;54839;51.364;7.246;2023-11-18T07:33:18;23.77;;;14.87;;
68050;SDS011;54839;51.364;7.246;2023-11-18T07:35:45;21.13;;;15.70;;
68050;SDS011;54839;51.364;7.246;2023-11-18T07:38:13;21.03;;;14.87;;
68050;SDS011;54839;51.364;7.246;2023-11-18T07:40:38;18.93;;;14.63;;
68050;SDS011;54839;51.364;7.246;2023-11-18T07:43:10;20.47;;;14.77;;
68050;SDS011;54839;51.364;7.246;2023-11-18T07:45:36;25.60;;;15.10;;
68050;SDS011;54839;51.364;7.246;2023-11-18T07:48:07;22.87;;;13.63;;
68050;SDS011;54839;51.364;7.246;2023-11-18T07:50:34;21.23;;;15.70;;
68050;SDS011;54839;51.364;7.246;2023-11-18T07:53:01;19.93;;;14.07;;
68050;SDS011;54839;51.364;7.246;2023-11-18T07:55:27;20.13;;;15.20;;
68050;SDS011;54839;51.364;7.246;2023-11-18T07:57:53;22.33;;;15.60;;
68050;SDS011;54839;51.364;7.246;2023-11-18T08:00:19;22.53;;;14.97;;
68050;SDS011;54839;51.364;7.246;2023-11-18T08:02:45;22.33;;;14.83;;
68050;SDS011;54839;51.364;7.246;2023-11-18T08:05:10;23.43;;;16.10;;
68050;SDS011;54839;51.364;7.246;2023-11-18T08:07:39;21.77;;;14.10;;
68050;SDS011;54839;51.364;7.246;2023-11-18T08:10:05;20.27;;;13.07;;
68050;SDS011;54839;51.364;7.246;2023-11-18T08:12:31;17.67;;;13.40;;
68050;SDS011;54839;51.364;7.246;2023-11-18T08:14:58;20.00;;;15.93;;
68050;SDS011;54839;51.364;7.246;2023-11-18T08:17:25;16.80;;;12.73;;
68050;SDS011;54839;51.364;7.246;2023-11-18T08:19:51;15.67;;;12.60;;
68050;SDS011;54839;51.364;7.246;2023-11-18T08:22:18;17.23;;;14.33;;
68050;SDS011;54839;51.364;7.246;2023-11-18T08:24:44;17.00;;;12.90;;
68050;SDS011;54839;51.364;7.246;2023-11-18T08:27:11;20.10;;;14.03;;
68050;SDS011;54839;51.364;7.246;2023-11-18T08:29:36;20.73;;;15.10;;
68050;SDS011;54839;51.364;7.246;2023-11-18T08:32:03;19.23;;;14.67;;
68050;SDS011;54839;51.364;7.246;2023-11-18T08:34:30;17.60;;;13.40;;
68050;SDS011;54839;51.364;7.246;2023-11-18T08:36:58;16.00;;;12.70;;
68050;SDS011;54839;51.364;7.246;2023-11-18T08:39:24;15.67;;;11.90;;
68050;SDS011;54839;51.364;7.246;2023-11-18T08:41:51;17.70;;;12.73;;
68050;SDS011;54839;51.364;7.246;2023-11-18T08:44:16;16.77;;;11.93;;
68050;SDS011;54839;51.364;7.246;2023-11-18T08:46:42;15.07;;;11.13;;
68050;SDS011;54839;51.364;7.246;2023-11-18T08:49:08;17.10;;;11.77;;
68050;SDS011;54839;51.364;7.246;2023-11-18T08:51:38;15.90;;;11.20;;
68050;SDS011;54839;51.364;7.246;2023-11-18T08:54:07;20.37;;;10.57;;
68050;SDS011;54839;51.364;7.246;2023-11-18T08:56:50;14.90;;;10.63;;
68050;SDS011;54839;51.364;7.246;2023-11-18T08:59:19;13.70;;;11.83;;
68050;SDS011;54839;51.364;7.246;2023-11-18T09:01:52;15.40;;;11.70;;
68050;SDS011;54839;51.364;7.246;2023-11-18T09:04:23;13.17;;;9.63;;
68050;SDS011;54839;51.364;7.246;2023-11-18T09:06:52;17.33;;;11.87;;
68050;SDS011;54839;51.364;7.246;2023-11-18T09:09:18;14.23;;;11.30;;
68050;SDS011;54839;51.364;7.246;2023-11-18T09:11:51;13.23;;;9.73;;
68050;SDS011;54839;51.364;7.246;2023-11-18T09:14:18;11.70;;;9.87;;
68050;SDS011;54839;51.364;7.246;2023-11-18T09:16:44;18.07;;;11.43;;
68050;SDS011;54839;51.364;7.246;2023-11-18T09:19:10;13.37;;;10.10;;
68050;SDS011;54839;51.364;7.246;2023-11-18T09:21:35;14.73;;;11.60;;
68050;SDS011;54839;51.364;7.246;2023-11-18T09:24:01;13.90;;;10.13;;
68050;SDS011;54839;51.364;7.246;2023-11-18T09:26:30;17.33;;;11.73;;
68050;SDS011;54839;51.364;7.246;2023-11-18T09:28:56;11.47;;;9.70;;
68050;SDS011;54839;51.364;7.246;2023-11-18T09:31:23;16.30;;;11.23;;
68050;SDS011;54839;51.364;7.246;2023-11-18T09:33:49;13.23;;;10.33;;
68050;SDS011;54839;51.364;7.246;2023-11-18T09:36:17;14.80;;;11.13;;
68050;SDS011;54839;51.364;7.246;2023-11-18T09:38:43;13.40;;;8.87;;
68050;SDS011;54839;51.364;7.246;2023-11-18T09:41:11;15.30;;;11.43;;
68050;SDS011;54839;51.364;7.246;2023-11-18T09:43:41;11.77;;;9.63;;
68050;SDS011;54839;51.364;7.246;2023-11-18T09:46:10;19.50;;;9.67;;
68050;SDS011;54839;51.364;7.246;2023-11-18T09:48:42;13.67;;;9.33;;
68050;SDS011;54839;51.364;7.246;2023-11-18T09:51:22;15.00;;;9.63;;
68050;SDS011;54839;51.364;7.246;2023-11-18T09:53:50;15.27;;;10.13;;
68050;SDS011;54839;51.364;7.246;2023-11-18T09:56:41;15.17;;;9.87;;
68050;SDS011;54839;51.364;7.246;2023-11-18T09:59:18;12.60;;;8.83;;
68050;SDS011;54839;51.364;7.246;2023-11-18T10:01:53;14.40;;;10.00;;
68050;SDS011;54839;51.364;7.246;2023-11-18T10:04:23;13.10;;;10.10;;
68050;SDS011;54839;51.364;7.246;2023-11-18T10:06:53;18.57;;;10.20;;
68050;SDS011;54839;51.364;7.246;2023-11-18T10:09:21;13.20;;;9.00;;
68050;SDS011;54839;51.364;7.246;2023-11-18T10:11:53;16.77;;;10.73;;
68050;SDS011;54839;51.364;7.246;2023-11-18T10:14:25;12.60;;;9.23;;
68050;SDS011;54839;51.364;7.246;2023-11-18T10:16:51;11.93;;;9.97;;
68050;SDS011;54839;51.364;7.246;2023-11-18T10:19:19;11.80;;;9.63;;
68050;SDS011;54839;51.364;7.246;2023-11-18T10:21:45;11.53;;;8.70;;
68050;SDS011;54839;51.364;7.246;2023-11-18T10:24:13;14.20;;;9.30;;
68050;SDS011;54839;51.364;7.246;2023-11-18T10:26:46;14.77;;;8.90;;
68050;SDS011;54839;51.364;7.246;2023-11-18T10:29:20;12.40;;;9.70;;
68050;SDS011;54839;51.364;7.246;2023-11-18T10:31:46;13.43;;;9.60;;
68050;SDS011;54839;51.364;7.246;2023-11-18T10:34:14;13.63;;;9.50;;
68050;SDS011;54839;51.364;7.246;2023-11-18T10:36:59;16.90;;;9.27;;
68050;SDS011;54839;51.364;7.246;2023-11-18T10:39:28;13.37;;;8.07;;
68050;SDS011;54839;51.364;7.246;2023-11-18T10:41:58;10.53;;;7.70;;
68050;SDS011;54839;51.364;7.246;2023-11-18T10:44:25;12.33;;;8.07;;
68050;SDS011;54839;51.364;7.246;2023-11-18T10:46:51;11.20;;;7.70;;
68050;SDS011;54839;51.364;7.246;2023-11-18T10:49:18;13.47;;;9.53;;
68050;SDS011;54839;51.364;7.246;2023-11-18T10:51:45;12.13;;;9.70;;
68050;SDS011;54839;51.364;7.246;2023-11-18T10:54:12;10.03;;;7.60;;
68050;SDS011;54839;51.364;7.246;2023-11-18T10:56:50;10.33;;;7.47;;
68050;SDS011;54839;51.364;7.246;2023-11-18T10:59:21;9.73;;;7.70;;
68050;SDS011;54839;51.364;7.246;2023-11-18T11:01:47;10.73;;;9.60;;
68050;SDS011;54839;51.364;7.246;2023-11-18T11:04:14;9.40;;;7.80;;
68050;SDS011;54839;51.364;7.246;2023-11-18T11:06:49;13.80;;;8.53;;
68050;SDS011;54839;51.364;7.246;2023-11-18T11:09:22;14.80;;;9.30;;
68050;SDS011;54839;51.364;7.246;2023-11-18T11:12:00;16.90;;;9.70;;
68050;SDS011;54839;51.364;7.246;2023-11-18T11:14:41;9.27;;;8.27;;
68050;SDS011;54839;51.364;7.246;2023-11-18T11:17:13;10.70;;;8.67;;
68050;SDS011;54839;51.364;7.246;2023-11-18T11:19:50;11.87;;;8.40;;
68050;SDS011;54839;51.364;7.246;2023-11-18T11:22:37;10.93;;;8.60;;
68050;SDS011;54839;51.364;7.246;2023-11-18T11:25:19;10.43;;;7.93;;
68050;SDS011;54839;51.364;7.246;2023-11-18T11:27:57;11.77;;;8.57;;
68050;SDS011;54839;51.364;7.246;2023-11-18T11:30:39;12.50;;;7.47;;
68050;SDS011;54839;51.364;7.246;2023-11-18T11:33:22;12.37;;;9.17;;
68050;SDS011;54839;51.364;7.246;2023-11-18T11:35:57;12.43;;;7.40;;
68050;SDS011;54839;51.364;7.246;2023-11-18T11:38:27;11.17;;;8.27;;
68050;SDS011;54839;51.364;7.246;2023-11-18T11:40:54;15.43;;;8.70;;
68050;SDS011;54839;51.364;7.246;2023-11-18T11:43:20;13.90;;;10.13;;
68050;SDS011;54839;51.364;7.246;2023-11-18T11:45:52;11.67;;;9.03;;
68050;SDS011;54839;51.364;7.246;2023-11-18T11:48:20;11.73;;;9.53;;
68050;SDS011;54839;51.364;7.246;2023-11-18T11:56:25;10.30;;;7.60;;
68050;SDS011;54839;51.364;7.246;2023-11-18T11:59:03;11.60;;;8.70;;
68050;SDS011;54839;51.364;7.246;2023-11-18T12:01:35;12.80;;;8.93;;
68050;SDS011;54839;51.364;7.246;2023-11-18T12:04:07;11.17;;;7.73;;
68050;SDS011;54839;51.364;7.246;2023-11-18T12:06:42;11.20;;;8.73;;
68050;SDS011;54839;51.364;7.246;2023-11-18T12:09:09;11.83;;;8.40;;
68050;SDS011;54839;51.364;7.246;2023-11-18T12:11:35;11.83;;;8.10;;
68050;SDS011;54839;51.364;7.246;2023-11-18T12:14:07;11.10;;;7.50;;
68050;SDS011;54839;51.364;7.246;2023-11-18T12:16:58;9.90;;;7.73;;
68050;SDS011;54839;51.364;7.246;2023-11-18T12:22:14;11.10;;;7.97;;
68050;SDS011;54839;51.364;7.246;2023-11-18T12:27:44;9.03;;;6.77;;
68050;SDS011;54839;51.364;7.246;2023-11-18T12:32:58;14.10;;;7.93;;
68050;SDS011;54839;51.364;7.246;2023-11-18T12:35:26;11.03;;;7.10;;
68050;SDS011;54839;51.364;7.246;2023-11-18T12:49:04;10.03;;;5.90;;
68050;SDS011;54839;51.364;7.246;2023-11-18T12:51:30;7.37;;;5.40;;
68050;SDS011;54839;51.364;7.246;2023-11-18T12:53:59;9.43;;;6.20;;
68050;SDS011;54839;51.364;7.246;2023-11-18T12:56:27;8.77;;;6.53;;
68050;SDS011;54839;51.364;7.246;2023-11-18T12:58:55;12.83;;;6.03;;
68050;SDS011;54839;51.364;7.246;2023-11-18T13:01:21;11.60;;;6.87;;
68050;SDS011;54839;51.364;7.246;2023-11-18T13:03:47;8.23;;;6.67;;
68050;SDS011;54839;51.364;7.246;2023-11-18T13:06:13;9.70;;;6.57;;
68050;SDS011;54839;51.364;7.246;2023-11-18T13:08:39;9.70;;;6.33;;
68050;SDS011;54839;51.364;7.246;2023-11-18T13:11:05;7.20;;;6.50;;
68050;SDS011;54839;51.364;7.246;2023-11-18T13:13:37;6.00;;;5.23;;
68050;SDS011;54839;51.364;7.246;2023-11-18T13:16:04;9.33;;;7.10;;
68050;SDS011;54839;51.364;7.246;2023-11-18T13:18:46;9.50;;;5.97;;
68050;SDS011;54839;51.364;7.246;2023-11-18T13:21:16;6.37;;;5.47;;
68050;SDS011;54839;51.364;7.246;2023-11-18T13:23:47;8.20;;;6.07;;
68050;SDS011;54839;51.364;7.246;2023-11-18T13:26:14;9.73;;;5.63;;
68050;SDS011;54839;51.364;7.246;2023-11-18T13:28:40;5.43;;;4.77;;
68050;SDS011;54839;51.364;7.246;2023-11-18T13:31:06;8.43;;;5.50;;
68050;SDS011;54839;51.364;7.246;2023-11-18T13:33:40;6.80;;;5.57;;
68050;SDS011;54839;51.364;7.246;2023-11-18T13:36:07;10.67;;;5.37;;
68050;SDS011;54839;51.364;7.246;2023-11-18T13:38:35;8.20;;;5.90;;
68050;SDS011;54839;51.364;7.246;2023-11-18T13:41:01;8.87;;;5.80;;
68050;SDS011;54839;51.364;7.246;2023-11-18T13:43:28;8.30;;;5.90;;
68050;SDS011;54839;51.364;7.246;2023-11-18T13:46:09;6.00;;;5.40;;
68050;SDS011;54839;51.364;7.246;2023-11-18T13:48:37;7.20;;;4.47;;
68050;SDS011;54839;51.364;7.246;2023-11-18T13:51:05;7.03;;;4.67;;
68050;SDS011;54839;51.364;7.246;2023-11-18T13:53:33;7.67;;;5.60;;
68050;SDS011;54839;51.364;7.246;2023-11-18T13:55:59;6.10;;;5.47;;
68050;SDS011;54839;51.364;7.246;2023-11-18T13:58:25;5.73;;;4.83;;
68050;SDS011;54839;51.364;7.246;2023-11-18T14:00:53;6.97;;;5.00;;
68050;SDS011;54839;51.364;7.246;2023-11-18T14:03:19;6.17;;;4.00;;
68050;SDS011;54839;51.364;7.246;2023-11-18T14:05:45;12.13;;;5.57;;
68050;SDS011;54839;51.364;7.246;2023-11-18T14:08:16;6.97;;;4.50;;
68050;SDS011;54839;51.364;7.246;2023-11-18T14:10:42;7.83;;;5.40;;
68050;SDS011;54839;51.364;7.246;2023-11-18T14:13:08;6.40;;;4.20;;
68050;SDS011;54839;51.364;7.246;2023-11-18T14:15:42;7.10;;;4.60;;
68050;SDS011;54839;51.364;7.246;2023-11-18T14:18:10;5.60;;;4.93;;
68050;SDS011;54839;51.364;7.246;2023-11-18T14:20:36;7.90;;;4.73;;
68050;SDS011;54839;51.364;7.246;2023-11-18T14:23:02;7.77;;;5.47;;
68050;SDS011;54839;51.364;7.246;2023-11-18T14:25:29;8.20;;;5.13;;
68050;SDS011;54839;51.364;7.246;2023-11-18T14:27:55;6.63;;;5.10;;
68050;SDS011;54839;51.364;7.246;2023-11-18T14:30:21;6.03;;;4.47;;
68050;SDS011;54839;51.364;7.246;2023-11-18T14:32:49;5.60;;;4.43;;
68050;SDS011;54839;51.364;7.246;2023-11-18T14:35:15;7.87;;;5.20;;
68050;SDS011;54839;51.364;7.246;2023-11-18T14:37:42;7.97;;;4.70;;
68050;SDS011;54839;51.364;7.246;2023-11-18T14:40:10;7.73;;;5.30;;
68050;SDS011;54839;51.364;7.246;2023-11-18T14:42:43;7.80;;;4.83;;
68050;SDS011;54839;51.364;7.246;2023-11-18T14:45:12;7.70;;;4.50;;
68050;SDS011;54839;51.364;7.246;2023-11-18T14:47:41;4.70;;;4.10;;
68050;SDS011;54839;51.364;7.246;2023-11-18T14:50:10;7.40;;;4.43;;
68050;SDS011;54839;51.364;7.246;2023-11-18T14:52:45;9.30;;;3.50;;
68050;SDS011;54839;51.364;7.246;2023-11-18T14:55:16;5.50;;;4.23;;
68050;SDS011;54839;51.364;7.246;2023-11-18T14:57:43;6.80;;;4.57;;
68050;SDS011;54839;51.364;7.246;2023-11-18T15:00:12;7.80;;;5.03;;